createdAt,value
2019-04-21T00:02:47.622Z,6.69
2019-04-21T00:06:11.470Z,6.88
2019-04-21T00:09:27.398Z,6.66
2019-04-21T00:12:31.454Z,6.91
2019-04-21T00:15:28.912Z,6.86
2019-04-21T00:18:41.805Z,7.05
2019-04-21T00:21:49.484Z,6.73
2019-04-21T00:25:09.666Z,6.41
2019-04-21T00:28:27.153Z,6.74
2019-04-21T00:31:24.892Z,6.39
2019-04-21T00:34:15.348Z,6.12
2019-04-21T00:37:41.199Z,6.29
2019-04-21T00:40:53.939Z,6.03
2019-04-21T00:43:56.009Z,6.00
2019-04-21T00:47:01.907Z,6.25
2019-04-21T00:50:17.988Z,6.20
2019-04-21T00:53:44.048Z,6.13
2019-04-21T00:56:54.202Z,6.13
2019-04-21T01:00:00.897Z,6.25
2019-04-21T01:03:13.104Z,6.39
2019-04-21T01:06:18.791Z,5.99
2019-04-21T01:09:13.545Z,6.12
2019-04-21T01:12:33.411Z,5.85
2019-04-21T01:15:47.464Z,5.60
2019-04-21T01:18:47.912Z,5.45
2019-04-21T01:21:33.704Z,5.58
2019-04-21T01:24:45.225Z,5.71
2019-04-21T01:28:07.269Z,5.72
2019-04-21T01:31:14.494Z,6.01
2019-04-21T01:34:28.832Z,5.73
2019-04-21T01:37:40.921Z,5.89
2019-04-21T01:41:03.814Z,5.73
2019-04-21T01:43:52.786Z,5.48
2019-04-21T01:46:54.511Z,5.33
2019-04-21T01:49:56.787Z,5.00
2019-04-21T01:53:38.552Z,4.87
2019-04-21T01:56:56.958Z,4.81
2019-04-21T01:59:57.031Z,4.66
2019-04-21T02:03:37.474Z,4.75
2019-04-21T02:06:21.167Z,4.88
2019-04-21T02:09:38.260Z,4.85
2019-04-21T02:12:48.718Z,5.03
2019-04-21T02:15:59.378Z,4.86
2019-04-21T02:18:58.577Z,5.12
2019-04-21T02:22:02.138Z,4.98
2019-04-21T02:25:23.147Z,4.95
2019-04-21T02:28:36.742Z,4.68
2019-04-21T02:35:03.898Z,4.75
2019-04-21T02:38:00.842Z,4.56
2019-04-21T02:41:21.388Z,4.42
2019-04-21T02:47:43.188Z,4.49
2019-04-21T02:56:56.187Z,4.30
2019-04-21T03:03:22.931Z,4.09
2019-04-21T03:13:06.007Z,4.16
2019-04-21T03:19:33.015Z,4.08
2019-04-21T03:22:24.896Z,4.13
2019-04-21T03:28:39.692Z,4.37
2019-04-21T03:32:16.783Z,4.12
2019-04-21T03:35:37.815Z,4.16
2019-04-21T03:41:12.627Z,4.22
2019-04-21T03:44:22.976Z,4.03
2019-04-21T03:47:30.622Z,3.97
2019-04-21T03:50:47.238Z,4.00
2019-04-21T04:00:24.985Z,3.98
2019-04-21T04:03:52.217Z,3.96
2019-04-21T04:07:04.327Z,4.07
2019-04-21T04:10:07.698Z,4.05
2019-04-21T04:13:20.376Z,3.95
2019-04-21T04:16:28.801Z,4.07
2019-04-21T04:19:37.843Z,3.98
2019-04-21T04:22:51.794Z,4.05
2019-04-21T04:25:51.576Z,4.11
2019-04-21T04:29:01.352Z,4.15
2019-04-21T04:31:57.219Z,4.12
2019-04-21T04:35:10.220Z,4.29
2019-04-21T04:41:46.594Z,4.41
2019-04-21T04:44:54.284Z,4.67
2019-04-21T04:47:59.770Z,4.79
2019-04-21T04:54:06.819Z,5.01
2019-04-21T04:57:21.725Z,5.14
2019-04-21T05:00:34.897Z,5.23
2019-04-21T05:03:43.810Z,5.36
2019-04-21T05:06:51.299Z,5.48
2019-04-21T05:09:57.586Z,5.58
2019-04-21T05:13:04.212Z,5.84
2019-04-21T05:16:09.841Z,5.91
2019-04-21T05:25:19.553Z,6.40
2019-04-21T05:28:24.467Z,6.81
2019-04-21T05:32:04.958Z,6.81
2019-04-21T05:35:16.335Z,7.09
2019-04-21T05:38:28.861Z,7.33
2019-04-21T05:41:26.378Z,7.52
2019-04-21T05:48:12.141Z,7.99
2019-04-21T05:51:08.920Z,8.17
2019-04-21T05:54:29.667Z,8.42
2019-04-21T05:57:32.270Z,8.56
2019-04-21T06:01:03.513Z,8.85
2019-04-21T06:03:52.726Z,8.93
2019-04-21T06:07:05.776Z,9.05
2019-04-21T06:10:08.870Z,9.14
2019-04-21T06:13:22.183Z,9.23
2019-04-21T06:16:21.463Z,9.33
2019-04-21T06:19:38.258Z,9.39
2019-04-21T06:22:39.689Z,9.38
2019-04-21T06:25:54.653Z,9.51
2019-04-21T06:28:51.821Z,9.55
2019-04-21T06:32:20.439Z,9.51
2019-04-21T06:35:41.318Z,9.51
2019-04-21T06:39:04.734Z,9.58
2019-04-21T06:42:07.425Z,9.63
2019-04-21T06:45:12.959Z,9.68
2019-04-21T06:48:25.492Z,9.74
2019-04-21T06:54:44.766Z,9.80
2019-04-21T06:57:46.318Z,9.87
2019-04-21T07:00:50.970Z,9.84
2019-04-21T07:04:11.263Z,9.89
2019-04-21T07:07:06.823Z,10.05
2019-04-21T07:10:22.818Z,10.03
2019-04-21T07:13:29.093Z,10.15
2019-04-21T07:16:38.636Z,10.24
2019-04-21T07:19:49.760Z,10.31
2019-04-21T07:23:09.295Z,10.35
2019-04-21T07:26:01.005Z,10.42
2019-04-21T07:29:12.233Z,10.49
2019-04-21T07:32:14.104Z,10.58
2019-04-21T07:35:25.040Z,10.78
2019-04-21T07:38:33.200Z,10.82
2019-04-21T07:41:38.547Z,10.93
2019-04-21T07:44:40.468Z,11.10
2019-04-21T07:48:01.577Z,11.31
2019-04-21T07:51:28.433Z,11.48
2019-04-21T07:57:36.637Z,11.82
2019-04-21T08:03:58.139Z,12.22
2019-04-21T08:06:57.119Z,12.45
2019-04-21T08:10:09.123Z,12.35
2019-04-21T08:13:31.705Z,12.54
2019-04-21T08:19:32.191Z,13.00
2019-04-21T08:22:48.026Z,13.01
2019-04-21T08:25:59.520Z,13.25
2019-04-21T08:29:10.572Z,13.47
2019-04-21T08:32:11.939Z,13.43
2019-04-21T08:38:20.863Z,13.73
2019-04-21T08:41:34.552Z,13.96
2019-04-21T08:44:40.076Z,13.64
2019-04-21T08:51:05.956Z,14.62
2019-04-21T08:54:09.498Z,14.13
2019-04-21T08:57:28.984Z,14.70
2019-04-21T09:00:40.233Z,14.56
2019-04-21T09:04:11.689Z,14.42
2019-04-21T09:07:12.830Z,15.05
2019-04-21T09:10:23.521Z,15.22
2019-04-21T09:13:35.529Z,15.50
2019-04-21T09:16:30.657Z,13.96
2019-04-21T09:19:53.346Z,14.76
2019-04-21T09:22:57.107Z,14.67
2019-04-21T09:25:58.845Z,14.87
2019-04-21T09:29:01.787Z,15.38
2019-04-21T09:32:01.099Z,15.57
2019-04-21T09:35:10.790Z,15.23
2019-04-21T09:38:26.466Z,15.04
2019-04-21T09:41:25.812Z,15.04
2019-04-21T09:44:36.759Z,15.39
2019-04-21T09:47:47.025Z,15.23
2019-04-21T09:50:48.003Z,14.87
2019-04-21T09:54:01.918Z,15.05
2019-04-21T09:57:08.926Z,15.35
2019-04-21T10:00:18.766Z,15.00
2019-04-21T10:03:21.214Z,15.11
2019-04-21T10:06:28.487Z,15.33
2019-04-21T10:09:35.583Z,15.41
2019-04-21T10:12:43.281Z,14.98
2019-04-21T10:16:03.667Z,15.35
2019-04-21T10:19:11.193Z,14.98
2019-04-21T10:22:18.996Z,15.44
2019-04-21T10:25:25.387Z,15.95
2019-04-21T10:28:32.932Z,15.79
2019-04-21T10:31:40.654Z,15.54
2019-04-21T10:34:47.590Z,15.89
2019-04-21T10:38:09.038Z,15.82
2019-04-21T10:41:03.398Z,15.85
2019-04-21T10:44:11.341Z,15.41
2019-04-21T10:47:18.617Z,15.26
2019-04-21T10:50:24.959Z,15.44
2019-04-21T10:53:34.556Z,15.79
2019-04-21T10:56:43.807Z,16.51
2019-04-21T10:59:52.733Z,15.90
2019-04-21T11:03:17.160Z,15.75
2019-04-21T11:06:24.436Z,15.96
2019-04-21T11:09:31.923Z,15.88
2019-04-21T11:12:39.738Z,15.68
2019-04-21T11:15:47.522Z,15.65
2019-04-21T11:18:54.239Z,15.35
2019-04-21T11:22:01.019Z,16.12
2019-04-21T11:25:07.626Z,16.84
2019-04-21T11:28:14.446Z,16.84
2019-04-21T11:31:21.144Z,17.63
2019-04-21T11:34:29.267Z,17.63
2019-04-21T11:37:35.734Z,17.39
2019-04-21T11:40:43.369Z,17.36
2019-04-21T11:43:50.882Z,17.47
2019-04-21T11:46:58.361Z,17.48
2019-04-21T11:50:13.039Z,17.48
2019-04-21T11:53:20.935Z,17.01
2019-04-21T11:56:27.573Z,17.86
2019-04-21T11:59:35.484Z,17.41
2019-04-21T12:02:43.734Z,17.43
2019-04-21T12:05:51.202Z,16.65
2019-04-21T12:09:01.065Z,17.14
2019-04-21T12:12:07.366Z,16.33
2019-04-21T12:15:14.312Z,17.35
2019-04-21T12:18:22.240Z,17.64
2019-04-21T12:21:39.089Z,17.13
2019-04-21T12:24:38.136Z,17.70
2019-04-21T12:27:45.924Z,17.42
2019-04-21T12:30:53.867Z,18.26
2019-04-21T12:34:03.571Z,17.18
2019-04-21T12:37:10.931Z,17.39
2019-04-21T12:40:18.731Z,16.84
2019-04-21T12:43:26.499Z,16.99
2019-04-21T12:46:33.952Z,16.94
2019-04-21T12:49:41.392Z,15.96
2019-04-21T12:52:47.872Z,15.91
2019-04-21T12:55:55.731Z,15.91
2019-04-21T12:59:02.910Z,16.01
2019-04-21T13:02:09.667Z,16.01
2019-04-21T13:05:17.827Z,16.21
2019-04-21T13:08:25.026Z,15.64
2019-04-21T13:11:33.152Z,15.60
2019-04-21T13:14:39.975Z,15.39
2019-04-21T13:17:47.363Z,15.15
2019-04-21T13:20:54.121Z,14.69
2019-04-21T13:24:00.994Z,14.23
2019-04-21T13:27:09.466Z,14.98
2019-04-21T13:30:18.115Z,15.18
2019-04-21T13:33:25.130Z,15.61
2019-04-21T13:36:33.788Z,15.76
2019-04-21T13:40:34.515Z,15.97
2019-04-21T13:43:27.259Z,15.97
2019-04-21T13:46:34.559Z,16.13
2019-04-21T13:49:41.495Z,16.35
2019-04-21T13:52:48.938Z,16.00
2019-04-21T13:55:56.450Z,16.04
2019-04-21T13:59:04.198Z,16.20
2019-04-21T14:02:11.231Z,16.20
2019-04-21T14:05:18.478Z,16.46
2019-04-21T14:08:25.370Z,16.71
2019-04-21T14:11:33.565Z,16.73
2019-04-21T14:14:42.044Z,16.89
2019-04-21T14:17:48.984Z,16.77
2019-04-21T14:20:55.719Z,16.40
2019-04-21T14:24:02.843Z,16.15
2019-04-21T14:27:10.169Z,16.04
2019-04-21T14:30:18.577Z,15.49
2019-04-21T14:33:26.027Z,15.09
2019-04-21T14:36:37.043Z,14.92
2019-04-21T14:39:55.276Z,14.72
2019-04-21T14:42:52.191Z,14.89
2019-04-21T14:46:02.968Z,14.77
2019-04-21T14:49:27.163Z,14.62
2019-04-21T14:52:37.079Z,14.36
2019-04-21T14:55:45.758Z,14.25
2019-04-21T14:58:55.587Z,13.84
2019-04-21T15:02:02.022Z,13.59
2019-04-21T15:05:09.445Z,13.56
2019-04-21T15:08:17.289Z,13.56
2019-04-21T15:11:24.232Z,13.23
2019-04-21T15:14:31.882Z,13.31
2019-04-21T15:17:39.855Z,12.88
2019-04-21T15:20:48.605Z,12.25
2019-04-21T15:23:54.386Z,12.03
2019-04-21T15:27:01.085Z,12.04
2019-04-21T15:30:09.143Z,11.47
2019-04-21T15:33:16.289Z,11.35
2019-04-21T15:36:22.919Z,11.25
2019-04-21T15:39:29.853Z,11.03
2019-04-21T15:42:36.695Z,10.85
2019-04-21T15:45:44.284Z,10.86
2019-04-21T15:48:51.082Z,10.86
2019-04-21T15:51:58.140Z,10.81
2019-04-21T15:55:10.635Z,10.87
2019-04-21T15:58:36.788Z,11.12
2019-04-21T16:01:57.022Z,11.24
2019-04-21T16:05:04.723Z,10.94
2019-04-21T16:08:12.211Z,10.85
2019-04-21T16:11:19.823Z,10.86
2019-04-21T16:14:27.022Z,10.89
2019-04-21T16:17:35.101Z,10.71
2019-04-21T16:20:41.895Z,10.46
2019-04-21T16:23:48.604Z,10.34
2019-04-21T16:26:56.464Z,10.41
2019-04-21T16:30:03.908Z,10.28
2019-04-21T16:33:10.517Z,10.08
2019-04-21T16:36:18.329Z,10.00
2019-04-21T16:39:25.346Z,10.00
2019-04-21T16:42:32.182Z,9.97
2019-04-21T16:45:39.135Z,10.00
2019-04-21T16:48:46.019Z,9.93
2019-04-21T16:52:12.014Z,9.80
2019-04-21T16:55:26.917Z,9.84
2019-04-21T16:58:40.910Z,9.79
2019-04-21T17:01:48.826Z,9.73
2019-04-21T17:04:56.260Z,9.78
2019-04-21T17:08:03.977Z,9.77
2019-04-21T17:11:17.538Z,9.50
2019-04-21T17:14:39.295Z,9.38
2019-04-21T17:17:49.967Z,9.39
2019-04-21T17:20:44.975Z,9.15
2019-04-21T17:23:44.348Z,9.00
2019-04-21T17:26:51.350Z,8.97
2019-04-21T17:29:58.978Z,9.03
2019-04-21T17:33:05.777Z,8.85
2019-04-21T17:36:12.127Z,8.85
2019-04-21T17:39:18.756Z,8.80
2019-04-21T17:42:34.457Z,8.75
2019-04-21T17:45:33.290Z,8.59
2019-04-21T17:48:40.676Z,8.56
2019-04-21T17:52:11.057Z,8.60
2019-04-21T17:55:28.356Z,8.52
2019-04-21T17:58:52.370Z,8.52
2019-04-21T18:01:59.264Z,8.39
2019-04-21T18:05:19.314Z,8.24
2019-04-21T18:08:18.469Z,8.23
2019-04-21T18:11:18.153Z,8.02
2019-04-21T18:14:15.918Z,7.91
2019-04-21T18:17:24.664Z,7.94
2019-04-21T18:20:33.302Z,7.74
2019-04-21T18:23:54.799Z,7.74
2019-04-21T18:26:58.848Z,7.32
2019-04-21T18:30:06.402Z,7.55
2019-04-21T18:33:23.384Z,7.62
2019-04-21T18:36:34.937Z,7.57
2019-04-21T18:39:55.830Z,7.48
2019-04-21T18:43:23.784Z,7.37
2019-04-21T18:46:38.679Z,7.31
2019-04-21T18:49:45.977Z,7.40
2019-04-21T18:53:13.659Z,7.34
2019-04-21T18:56:12.887Z,7.20
2019-04-21T18:59:21.209Z,7.22
2019-04-21T19:02:26.425Z,7.22
2019-04-21T19:05:34.385Z,7.20
2019-04-21T19:12:08.732Z,7.19
2019-04-21T19:15:15.785Z,7.04
2019-04-21T19:18:40.125Z,7.03
2019-04-21T19:21:28.382Z,7.01
2019-04-21T19:24:41.126Z,7.00
2019-04-21T19:27:51.628Z,7.03
2019-04-21T19:31:05.187Z,6.94
2019-04-21T19:34:01.000Z,6.87
2019-04-21T19:37:00.931Z,6.84
2019-04-21T19:40:16.146Z,6.85
2019-04-21T19:43:33.046Z,6.77
2019-04-21T19:46:35.698Z,6.79
2019-04-21T19:49:49.964Z,6.84
2019-04-21T19:52:46.723Z,6.76
2019-04-21T19:55:43.943Z,6.75
2019-04-21T19:58:50.872Z,6.63
2019-04-21T20:01:58.319Z,6.70
2019-04-21T20:05:12.554Z,6.68
2019-04-21T20:08:29.074Z,6.68
2019-04-21T20:11:37.221Z,6.63
2019-04-21T20:14:55.462Z,6.62
2019-04-21T20:17:57.555Z,6.62
2019-04-21T20:20:48.135Z,6.66
2019-04-21T20:23:57.452Z,6.54
2019-04-21T20:27:11.456Z,6.64
2019-04-21T20:30:32.805Z,6.58
2019-04-21T20:36:47.637Z,6.52
2019-04-21T20:39:46.228Z,6.63
2019-04-21T20:42:58.867Z,6.60
2019-04-21T20:46:07.960Z,6.56
2019-04-21T20:49:14.107Z,6.64
2019-04-21T20:52:29.464Z,6.60
2019-04-21T20:55:26.522Z,6.57
2019-04-21T20:58:40.789Z,6.58
2019-04-21T21:01:49.485Z,6.58
2019-04-21T21:04:52.690Z,6.57
2019-04-21T21:08:13.755Z,6.63
2019-04-21T21:11:08.168Z,6.61
2019-04-21T21:14:21.989Z,6.59
2019-04-21T21:20:35.781Z,6.64
2019-04-21T21:23:49.696Z,6.71
2019-04-21T21:26:54.437Z,6.73
2019-04-21T21:30:02.543Z,6.75
2019-04-21T21:33:15.222Z,6.85
2019-04-21T21:36:21.339Z,6.91
2019-04-21T21:39:31.722Z,6.89
2019-04-21T21:42:27.550Z,6.99
2019-04-21T21:45:30.652Z,6.97
2019-04-21T21:48:49.194Z,7.03
2019-04-21T21:51:56.771Z,7.03
2019-04-21T21:54:51.903Z,7.09
2019-04-21T21:58:02.481Z,7.08
2019-04-21T22:01:09.848Z,7.11
2019-04-21T22:04:24.866Z,7.11
2019-04-21T22:07:31.023Z,7.12
2019-04-21T22:10:34.869Z,7.16
2019-04-21T22:13:49.095Z,7.18
2019-04-21T22:17:07.499Z,7.16
2019-04-21T22:20:17.045Z,7.19
2019-04-21T22:23:13.343Z,7.22
2019-04-21T22:26:15.715Z,7.26
2019-04-21T22:29:23.406Z,7.26
2019-04-21T22:32:31.436Z,7.23
2019-04-21T22:35:44.317Z,7.29
2019-04-21T22:39:07.043Z,7.26
2019-04-21T22:42:01.841Z,7.29
2019-04-21T22:45:02.411Z,7.29
2019-04-21T22:48:14.333Z,7.34
2019-04-21T22:51:25.290Z,7.33
2019-04-21T22:54:32.614Z,7.30
2019-04-21T22:57:41.684Z,7.36
2019-04-21T23:00:46.407Z,7.36
2019-04-21T23:03:58.292Z,7.42
2019-04-21T23:07:07.233Z,7.43
2019-04-21T23:10:09.442Z,7.42
2019-04-21T23:13:20.299Z,7.45
2019-04-21T23:16:30.106Z,7.44
2019-04-21T23:19:46.252Z,7.51
2019-04-21T23:23:05.196Z,7.55
2019-04-21T23:26:09.175Z,7.63
2019-04-21T23:29:18.487Z,7.60
2019-04-21T23:32:19.709Z,7.61
2019-04-21T23:35:25.774Z,7.58
2019-04-21T23:38:31.956Z,7.57
2019-04-21T23:41:36.117Z,7.57
2019-04-21T23:44:41.524Z,7.64
2019-04-21T23:47:59.123Z,7.55
2019-04-21T23:51:08.133Z,7.60
2019-04-21T23:54:02.782Z,7.57
2019-04-21T23:57:17.006Z,7.58
